sensor_id;sensor_type;location;lat;lon;timestamp;temperature;humidity
25616;DHT22;13482;48.234;13.006;2023-02-15T00:02:02;3.20;74.10
25616;DHT22;13482;48.234;13.006;2023-02-15T00:04:29;3.20;74.00
25616;DHT22;13482;48.234;13.006;2023-02-15T00:07:17;3.20;74.00
25616;DHT22;13482;48.234;13.006;2023-02-15T00:09:46;3.20;73.90
25616;DHT22;13482;48.234;13.006;2023-02-15T00:12:14;3.10;73.90
25616;DHT22;13482;48.234;13.006;2023-02-15T00:14:42;3.10;73.90
25616;DHT22;13482;48.234;13.006;2023-02-15T00:17:09;3.10;73.90
25616;DHT22;13482;48.234;13.006;2023-02-15T00:19:36;3.10;74.00
25616;DHT22;13482;48.234;13.006;2023-02-15T00:22:04;3.10;74.00
25616;DHT22;13482;48.234;13.006;2023-02-15T00:24:31;3.10;74.10
25616;DHT22;13482;48.234;13.006;2023-02-15T00:26:58;3.00;74.00
25616;DHT22;13482;48.234;13.006;2023-02-15T00:29:25;3.00;74.00
25616;DHT22;13482;48.234;13.006;2023-02-15T00:31:52;3.00;74.00
25616;DHT22;13482;48.234;13.006;2023-02-15T00:34:26;3.00;74.00
25616;DHT22;13482;48.234;13.006;2023-02-15T00:36:53;3.00;74.00
25616;DHT22;13482;48.234;13.006;2023-02-15T00:39:21;3.00;74.00
25616;DHT22;13482;48.234;13.006;2023-02-15T00:41:48;3.00;74.00
25616;DHT22;13482;48.234;13.006;2023-02-15T00:44:16;3.00;74.10
25616;DHT22;13482;48.234;13.006;2023-02-15T00:46:43;3.00;74.10
25616;DHT22;13482;48.234;13.006;2023-02-15T00:49:10;3.00;74.10
25616;DHT22;13482;48.234;13.006;2023-02-15T00:51:38;3.00;74.10
25616;DHT22;13482;48.234;13.006;2023-02-15T00:54:06;3.00;74.10
25616;DHT22;13482;48.234;13.006;2023-02-15T00:56:34;3.00;74.20
25616;DHT22;13482;48.234;13.006;2023-02-15T00:59:01;3.00;74.20
25616;DHT22;13482;48.234;13.006;2023-02-15T01:01:28;3.00;74.20
25616;DHT22;13482;48.234;13.006;2023-02-15T01:03:56;3.00;74.10
25616;DHT22;13482;48.234;13.006;2023-02-15T01:06:23;3.00;74.10
25616;DHT22;13482;48.234;13.006;2023-02-15T01:08:50;3.00;74.20
25616;DHT22;13482;48.234;13.006;2023-02-15T01:11:21;3.00;74.20
25616;DHT22;13482;48.234;13.006;2023-02-15T01:13:50;3.00;74.20
25616;DHT22;13482;48.234;13.006;2023-02-15T01:16:19;3.00;74.20
25616;DHT22;13482;48.234;13.006;2023-02-15T01:18:46;2.90;74.20
25616;DHT22;13482;48.234;13.006;2023-02-15T01:21:17;2.90;74.20
25616;DHT22;13482;48.234;13.006;2023-02-15T01:23:47;2.90;74.30
25616;DHT22;13482;48.234;13.006;2023-02-15T01:26:17;2.90;74.30
25616;DHT22;13482;48.234;13.006;2023-02-15T01:28:44;2.90;74.30
25616;DHT22;13482;48.234;13.006;2023-02-15T01:31:14;2.90;74.30
25616;DHT22;13482;48.234;13.006;2023-02-15T01:33:43;2.90;74.20
25616;DHT22;13482;48.234;13.006;2023-02-15T01:36:11;2.90;74.20
25616;DHT22;13482;48.234;13.006;2023-02-15T01:38:38;2.90;74.20
25616;DHT22;13482;48.234;13.006;2023-02-15T01:41:09;2.90;74.20
25616;DHT22;13482;48.234;13.006;2023-02-15T01:43:58;2.90;74.20
25616;DHT22;13482;48.234;13.006;2023-02-15T01:46:31;2.90;74.10
25616;DHT22;13482;48.234;13.006;2023-02-15T01:49:13;2.90;74.00
25616;DHT22;13482;48.234;13.006;2023-02-15T01:51:44;2.90;74.00
25616;DHT22;13482;48.234;13.006;2023-02-15T01:54:25;2.90;74.00
25616;DHT22;13482;48.234;13.006;2023-02-15T01:57:00;2.90;74.00
25616;DHT22;13482;48.234;13.006;2023-02-15T01:59:34;2.80;74.10
25616;DHT22;13482;48.234;13.006;2023-02-15T02:02:04;2.80;74.10
25616;DHT22;13482;48.234;13.006;2023-02-15T02:04:51;2.80;74.10
25616;DHT22;13482;48.234;13.006;2023-02-15T02:07:21;2.80;74.10
25616;DHT22;13482;48.234;13.006;2023-02-15T02:09:50;2.80;74.00
25616;DHT22;13482;48.234;13.006;2023-02-15T02:12:18;2.80;74.00
25616;DHT22;13482;48.234;13.006;2023-02-15T02:14:48;2.80;74.00
25616;DHT22;13482;48.234;13.006;2023-02-15T02:40:03;2.80;74.10
25616;DHT22;13482;48.234;13.006;2023-02-15T02:42:44;2.80;74.10
25616;DHT22;13482;48.234;13.006;2023-02-15T02:45:57;2.80;74.00
25616;DHT22;13482;48.234;13.006;2023-02-15T02:48:30;2.80;74.10
25616;DHT22;13482;48.234;13.006;2023-02-15T02:50:59;2.80;74.00
25616;DHT22;13482;48.234;13.006;2023-02-15T02:53:31;2.70;74.10
25616;DHT22;13482;48.234;13.006;2023-02-15T02:56:03;2.70;74.20
25616;DHT22;13482;48.234;13.006;2023-02-15T02:58:46;2.70;74.20
25616;DHT22;13482;48.234;13.006;2023-02-15T03:01:28;2.70;74.20
25616;DHT22;13482;48.234;13.006;2023-02-15T03:04:10;2.70;74.20
25616;DHT22;13482;48.234;13.006;2023-02-15T03:06:44;2.80;74.10
25616;DHT22;13482;48.234;13.006;2023-02-15T03:09:25;2.70;74.10
25616;DHT22;13482;48.234;13.006;2023-02-15T03:14:40;2.70;74.00
25616;DHT22;13482;48.234;13.006;2023-02-15T03:17:08;2.70;74.00
25616;DHT22;13482;48.234;13.006;2023-02-15T03:19:37;2.70;74.00
25616;DHT22;13482;48.234;13.006;2023-02-15T03:22:11;2.70;74.00
25616;DHT22;13482;48.234;13.006;2023-02-15T03:24:46;2.70;74.00
25616;DHT22;13482;48.234;13.006;2023-02-15T03:27:24;2.70;74.00
25616;DHT22;13482;48.234;13.006;2023-02-15T03:29:57;2.70;74.00
25616;DHT22;13482;48.234;13.006;2023-02-15T03:32:27;2.70;74.00
25616;DHT22;13482;48.234;13.006;2023-02-15T03:34:56;2.70;74.00
25616;DHT22;13482;48.234;13.006;2023-02-15T03:37:32;2.60;74.00
25616;DHT22;13482;48.234;13.006;2023-02-15T03:42:54;2.60;74.10
25616;DHT22;13482;48.234;13.006;2023-02-15T03:45:28;2.60;74.00
25616;DHT22;13482;48.234;13.006;2023-02-15T03:47:58;2.60;74.00
25616;DHT22;13482;48.234;13.006;2023-02-15T03:50:32;2.60;74.10
25616;DHT22;13482;48.234;13.006;2023-02-15T03:53:21;2.60;74.10
25616;DHT22;13482;48.234;13.006;2023-02-15T03:55:50;2.60;74.10
25616;DHT22;13482;48.234;13.006;2023-02-15T03:58:20;2.60;74.10
25616;DHT22;13482;48.234;13.006;2023-02-15T04:01:25;2.60;74.20
25616;DHT22;13482;48.234;13.006;2023-02-15T04:04:20;2.60;74.30
25616;DHT22;13482;48.234;13.006;2023-02-15T04:06:51;2.60;74.20
25616;DHT22;13482;48.234;13.006;2023-02-15T04:09:18;2.60;74.30
25616;DHT22;13482;48.234;13.006;2023-02-15T04:12:04;2.60;74.30
25616;DHT22;13482;48.234;13.006;2023-02-15T04:14:31;2.60;74.30
25616;DHT22;13482;48.234;13.006;2023-02-15T04:17:17;2.60;74.40
25616;DHT22;13482;48.234;13.006;2023-02-15T04:19:44;2.60;74.40
25616;DHT22;13482;48.234;13.006;2023-02-15T04:22:30;2.60;74.50
25616;DHT22;13482;48.234;13.006;2023-02-15T04:25:16;2.60;74.50
25616;DHT22;13482;48.234;13.006;2023-02-15T04:27:48;2.60;74.50
25616;DHT22;13482;48.234;13.006;2023-02-15T04:30:19;2.70;74.40
25616;DHT22;13482;48.234;13.006;2023-02-15T04:32:48;2.60;74.40
25616;DHT22;13482;48.234;13.006;2023-02-15T04:35:15;2.60;74.40
25616;DHT22;13482;48.234;13.006;2023-02-15T04:37:43;2.60;74.30
25616;DHT22;13482;48.234;13.006;2023-02-15T04:40:12;2.60;74.20
25616;DHT22;13482;48.234;13.006;2023-02-15T04:42:45;2.60;74.10
25616;DHT22;13482;48.234;13.006;2023-02-15T04:45:14;2.60;74.20
25616;DHT22;13482;48.234;13.006;2023-02-15T04:47:41;2.60;74.20
25616;DHT22;13482;48.234;13.006;2023-02-15T04:50:09;2.60;74.20
25616;DHT22;13482;48.234;13.006;2023-02-15T04:52:36;2.60;74.20
25616;DHT22;13482;48.234;13.006;2023-02-15T04:55:04;2.60;74.20
25616;DHT22;13482;48.234;13.006;2023-02-15T04:57:31;2.60;74.30
25616;DHT22;13482;48.234;13.006;2023-02-15T04:59:59;2.60;74.20
25616;DHT22;13482;48.234;13.006;2023-02-15T05:02:26;2.60;74.20
25616;DHT22;13482;48.234;13.006;2023-02-15T05:04:53;2.50;74.20
25616;DHT22;13482;48.234;13.006;2023-02-15T05:07:20;2.50;74.20
25616;DHT22;13482;48.234;13.006;2023-02-15T05:09:48;2.50;74.20
25616;DHT22;13482;48.234;13.006;2023-02-15T05:12:15;2.50;74.20
25616;DHT22;13482;48.234;13.006;2023-02-15T05:14:42;2.50;74.20
25616;DHT22;13482;48.234;13.006;2023-02-15T05:17:09;2.50;74.20
25616;DHT22;13482;48.234;13.006;2023-02-15T05:19:36;2.50;74.20
25616;DHT22;13482;48.234;13.006;2023-02-15T05:22:04;2.40;74.20
25616;DHT22;13482;48.234;13.006;2023-02-15T05:24:32;2.40;74.20
25616;DHT22;13482;48.234;13.006;2023-02-15T05:27:18;2.40;74.30
25616;DHT22;13482;48.234;13.006;2023-02-15T05:30:04;2.40;74.30
25616;DHT22;13482;48.234;13.006;2023-02-15T05:32:32;2.40;74.30
25616;DHT22;13482;48.234;13.006;2023-02-15T05:34:59;2.40;74.30
25616;DHT22;13482;48.234;13.006;2023-02-15T05:37:27;2.40;74.30
25616;DHT22;13482;48.234;13.006;2023-02-15T05:39:54;2.40;74.30
25616;DHT22;13482;48.234;13.006;2023-02-15T05:42:21;2.40;74.30
25616;DHT22;13482;48.234;13.006;2023-02-15T05:44:48;2.40;74.30
25616;DHT22;13482;48.234;13.006;2023-02-15T05:47:15;2.40;74.30
25616;DHT22;13482;48.234;13.006;2023-02-15T05:49:42;2.40;74.30
25616;DHT22;13482;48.234;13.006;2023-02-15T05:52:10;2.40;74.30
25616;DHT22;13482;48.234;13.006;2023-02-15T05:54:38;2.40;74.40
25616;DHT22;13482;48.234;13.006;2023-02-15T05:57:05;2.40;74.40
25616;DHT22;13482;48.234;13.006;2023-02-15T05:59:33;2.40;74.50
25616;DHT22;13482;48.234;13.006;2023-02-15T06:02:00;2.40;74.50
25616;DHT22;13482;48.234;13.006;2023-02-15T06:04:27;2.50;74.50
25616;DHT22;13482;48.234;13.006;2023-02-15T06:06:54;2.50;74.40
25616;DHT22;13482;48.234;13.006;2023-02-15T06:09:21;2.50;74.40
25616;DHT22;13482;48.234;13.006;2023-02-15T06:11:49;2.50;74.40
25616;DHT22;13482;48.234;13.006;2023-02-15T06:14:16;2.50;74.40
25616;DHT22;13482;48.234;13.006;2023-02-15T06:16:43;2.50;74.40
25616;DHT22;13482;48.234;13.006;2023-02-15T06:19:10;2.50;74.40
25616;DHT22;13482;48.234;13.006;2023-02-15T06:21:37;2.50;74.30
25616;DHT22;13482;48.234;13.006;2023-02-15T06:24:05;2.50;74.30
25616;DHT22;13482;48.234;13.006;2023-02-15T06:26:32;2.50;74.30
25616;DHT22;13482;48.234;13.006;2023-02-15T06:28:59;2.50;74.30
25616;DHT22;13482;48.234;13.006;2023-02-15T06:31:26;2.50;74.30
25616;DHT22;13482;48.234;13.006;2023-02-15T06:33:54;2.50;74.30
25616;DHT22;13482;48.234;13.006;2023-02-15T06:36:28;2.50;74.30
25616;DHT22;13482;48.234;13.006;2023-02-15T06:38:56;2.50;74.30
25616;DHT22;13482;48.234;13.006;2023-02-15T06:41:24;2.40;74.30
25616;DHT22;13482;48.234;13.006;2023-02-15T06:43:51;2.40;74.30
25616;DHT22;13482;48.234;13.006;2023-02-15T06:46:18;2.40;74.30
25616;DHT22;13482;48.234;13.006;2023-02-15T06:48:45;2.40;74.30
25616;DHT22;13482;48.234;13.006;2023-02-15T06:51:12;2.40;74.30
25616;DHT22;13482;48.234;13.006;2023-02-15T06:53:40;2.40;74.30
25616;DHT22;13482;48.234;13.006;2023-02-15T06:56:10;2.30;74.30
25616;DHT22;13482;48.234;13.006;2023-02-15T06:58:41;2.30;74.30
25616;DHT22;13482;48.234;13.006;2023-02-15T07:01:09;2.30;74.40
25616;DHT22;13482;48.234;13.006;2023-02-15T07:03:36;2.30;74.50
25616;DHT22;13482;48.234;13.006;2023-02-15T07:06:04;2.30;74.50
25616;DHT22;13482;48.234;13.006;2023-02-15T07:08:35;2.30;74.50
25616;DHT22;13482;48.234;13.006;2023-02-15T07:11:04;2.40;74.50
25616;DHT22;13482;48.234;13.006;2023-02-15T07:13:50;2.40;74.40
25616;DHT22;13482;48.234;13.006;2023-02-15T07:16:19;2.30;74.30
25616;DHT22;13482;48.234;13.006;2023-02-15T07:18:47;2.40;74.30
25616;DHT22;13482;48.234;13.006;2023-02-15T07:21:14;2.30;74.30
25616;DHT22;13482;48.234;13.006;2023-02-15T07:23:41;2.30;74.30
25616;DHT22;13482;48.234;13.006;2023-02-15T07:26:08;2.30;74.30
25616;DHT22;13482;48.234;13.006;2023-02-15T07:28:36;2.30;74.40
25616;DHT22;13482;48.234;13.006;2023-02-15T07:31:04;2.30;74.50
25616;DHT22;13482;48.234;13.006;2023-02-15T07:33:34;2.40;74.60
25616;DHT22;13482;48.234;13.006;2023-02-15T07:36:03;2.40;74.60
25616;DHT22;13482;48.234;13.006;2023-02-15T07:38:35;2.40;74.60
25616;DHT22;13482;48.234;13.006;2023-02-15T07:41:09;2.50;74.70
25616;DHT22;13482;48.234;13.006;2023-02-15T07:43:40;2.50;74.70
25616;DHT22;13482;48.234;13.006;2023-02-15T07:46:11;2.60;74.70
25616;DHT22;13482;48.234;13.006;2023-02-15T07:48:40;2.60;74.70
25616;DHT22;13482;48.234;13.006;2023-02-15T07:51:10;2.60;74.80
25616;DHT22;13482;48.234;13.006;2023-02-15T07:53:38;2.60;74.70
25616;DHT22;13482;48.234;13.006;2023-02-15T07:56:15;2.70;74.70
25616;DHT22;13482;48.234;13.006;2023-02-15T07:58:42;2.70;74.60
25616;DHT22;13482;48.234;13.006;2023-02-15T08:01:21;2.70;74.60
25616;DHT22;13482;48.234;13.006;2023-02-15T08:03:50;2.70;74.40
25616;DHT22;13482;48.234;13.006;2023-02-15T08:06:17;2.70;74.40
25616;DHT22;13482;48.234;13.006;2023-02-15T08:08:45;2.70;74.40
25616;DHT22;13482;48.234;13.006;2023-02-15T08:11:17;2.60;74.50
25616;DHT22;13482;48.234;13.006;2023-02-15T08:14:00;2.60;74.50
25616;DHT22;13482;48.234;13.006;2023-02-15T08:16:43;2.60;74.40
25616;DHT22;13482;48.234;13.006;2023-02-15T08:24:22;2.50;74.40
25616;DHT22;13482;48.234;13.006;2023-02-15T08:26:51;2.50;74.50
25616;DHT22;13482;48.234;13.006;2023-02-15T08:29:27;2.40;74.50
25616;DHT22;13482;48.234;13.006;2023-02-15T08:32:01;2.40;74.60
25616;DHT22;13482;48.234;13.006;2023-02-15T08:34:32;2.40;74.60
25616;DHT22;13482;48.234;13.006;2023-02-15T08:37:01;2.40;74.60
25616;DHT22;13482;48.234;13.006;2023-02-15T08:39:28;2.30;74.60
25616;DHT22;13482;48.234;13.006;2023-02-15T08:41:55;2.30;74.60
25616;DHT22;13482;48.234;13.006;2023-02-15T08:44:22;2.30;74.70
25616;DHT22;13482;48.234;13.006;2023-02-15T08:46:50;2.30;74.80
25616;DHT22;13482;48.234;13.006;2023-02-15T08:49:19;2.30;74.80
25616;DHT22;13482;48.234;13.006;2023-02-15T08:51:49;2.40;74.90
25616;DHT22;13482;48.234;13.006;2023-02-15T08:54:19;2.40;74.90
25616;DHT22;13482;48.234;13.006;2023-02-15T08:56:47;2.40;74.90
25616;DHT22;13482;48.234;13.006;2023-02-15T08:59:24;2.40;75.00
25616;DHT22;13482;48.234;13.006;2023-02-15T09:01:53;2.50;75.10
25616;DHT22;13482;48.234;13.006;2023-02-15T09:04:22;2.60;75.10
25616;DHT22;13482;48.234;13.006;2023-02-15T09:06:50;2.60;75.10
25616;DHT22;13482;48.234;13.006;2023-02-15T09:09:18;2.70;75.10
25616;DHT22;13482;48.234;13.006;2023-02-15T09:11:50;2.70;75.10
25616;DHT22;13482;48.234;13.006;2023-02-15T09:14:24;2.80;75.10
25616;DHT22;13482;48.234;13.006;2023-02-15T09:16:53;2.80;75.20
25616;DHT22;13482;48.234;13.006;2023-02-15T09:19:22;2.90;75.00
25616;DHT22;13482;48.234;13.006;2023-02-15T09:21:51;2.90;75.00
25616;DHT22;13482;48.234;13.006;2023-02-15T09:24:19;3.00;74.90
25616;DHT22;13482;48.234;13.006;2023-02-15T09:26:48;3.10;75.00
25616;DHT22;13482;48.234;13.006;2023-02-15T09:29:16;3.10;74.90
25616;DHT22;13482;48.234;13.006;2023-02-15T09:31:47;3.20;74.80
25616;DHT22;13482;48.234;13.006;2023-02-15T09:34:19;3.30;74.80
25616;DHT22;13482;48.234;13.006;2023-02-15T09:36:47;3.30;74.80
25616;DHT22;13482;48.234;13.006;2023-02-15T09:39:17;3.30;74.80
25616;DHT22;13482;48.234;13.006;2023-02-15T09:56:06;3.60;74.10
25616;DHT22;13482;48.234;13.006;2023-02-15T10:23:26;3.90;74.10
25616;DHT22;13482;48.234;13.006;2023-02-15T10:31:46;3.90;73.80
25616;DHT22;13482;48.234;13.006;2023-02-15T10:34:37;3.90;73.80
25616;DHT22;13482;48.234;13.006;2023-02-15T10:43:22;4.00;74.00
25616;DHT22;13482;48.234;13.006;2023-02-15T10:49:15;4.10;74.10
25616;DHT22;13482;48.234;13.006;2023-02-15T10:52:03;4.10;74.00
25616;DHT22;13482;48.234;13.006;2023-02-15T11:00:36;4.30;73.90
25616;DHT22;13482;48.234;13.006;2023-02-15T11:03:18;4.30;73.90
25616;DHT22;13482;48.234;13.006;2023-02-15T11:06:11;4.30;73.80
25616;DHT22;13482;48.234;13.006;2023-02-15T11:08:51;4.40;73.70
25616;DHT22;13482;48.234;13.006;2023-02-15T11:11:36;4.40;73.60
25616;DHT22;13482;48.234;13.006;2023-02-15T11:14:30;4.40;73.70
25616;DHT22;13482;48.234;13.006;2023-02-15T11:17:28;4.40;73.70
25616;DHT22;13482;48.234;13.006;2023-02-15T11:20:30;4.50;73.80
25616;DHT22;13482;48.234;13.006;2023-02-15T11:23:01;4.50;73.60
25616;DHT22;13482;48.234;13.006;2023-02-15T11:25:33;4.50;73.70
25616;DHT22;13482;48.234;13.006;2023-02-15T11:28:05;4.50;73.70
25616;DHT22;13482;48.234;13.006;2023-02-15T11:30:50;4.50;73.80
25616;DHT22;13482;48.234;13.006;2023-02-15T11:33:34;4.60;73.60
25616;DHT22;13482;48.234;13.006;2023-02-15T11:36:18;4.60;73.40
25616;DHT22;13482;48.234;13.006;2023-02-15T11:38:52;4.60;73.30
25616;DHT22;13482;48.234;13.006;2023-02-15T11:41:29;4.60;73.20
25616;DHT22;13482;48.234;13.006;2023-02-15T11:46:47;4.50;72.90
25616;DHT22;13482;48.234;13.006;2023-02-15T11:49:30;4.50;73.20
25616;DHT22;13482;48.234;13.006;2023-02-15T11:52:02;4.50;73.30
25616;DHT22;13482;48.234;13.006;2023-02-15T11:54:35;4.50;73.40
25616;DHT22;13482;48.234;13.006;2023-02-15T11:59:56;4.50;73.40
25616;DHT22;13482;48.234;13.006;2023-02-15T12:02:45;4.50;73.40
25616;DHT22;13482;48.234;13.006;2023-02-15T12:05:17;4.50;73.30
25616;DHT22;13482;48.234;13.006;2023-02-15T12:07:55;4.50;73.20
25616;DHT22;13482;48.234;13.006;2023-02-15T12:10:31;4.60;73.40
25616;DHT22;13482;48.234;13.006;2023-02-15T12:13:16;4.60;73.50
25616;DHT22;13482;48.234;13.006;2023-02-15T12:15:46;4.60;73.50
25616;DHT22;13482;48.234;13.006;2023-02-15T12:20:51;4.70;73.40
25616;DHT22;13482;48.234;13.006;2023-02-15T12:23:19;4.70;73.50
25616;DHT22;13482;48.234;13.006;2023-02-15T12:25:52;4.80;73.50
25616;DHT22;13482;48.234;13.006;2023-02-15T12:28:31;4.80;73.50
25616;DHT22;13482;48.234;13.006;2023-02-15T12:31:03;4.90;73.40
25616;DHT22;13482;48.234;13.006;2023-02-15T12:33:47;4.90;73.30
25616;DHT22;13482;48.234;13.006;2023-02-15T12:36:26;4.90;73.20
25616;DHT22;13482;48.234;13.006;2023-02-15T12:42:41;5.00;73.20
25616;DHT22;13482;48.234;13.006;2023-02-15T12:47:23;5.00;73.30
25616;DHT22;13482;48.234;13.006;2023-02-15T12:50:25;5.10;73.40
25616;DHT22;13482;48.234;13.006;2023-02-15T12:55:58;5.20;73.50
25616;DHT22;13482;48.234;13.006;2023-02-15T12:58:29;5.20;73.50
25616;DHT22;13482;48.234;13.006;2023-02-15T13:01:10;5.20;73.60
25616;DHT22;13482;48.234;13.006;2023-02-15T13:04:01;5.20;73.50
25616;DHT22;13482;48.234;13.006;2023-02-15T13:06:34;5.30;73.30
25616;DHT22;13482;48.234;13.006;2023-02-15T13:09:34;5.30;73.30
25616;DHT22;13482;48.234;13.006;2023-02-15T13:12:25;5.40;73.20
25616;DHT22;13482;48.234;13.006;2023-02-15T13:14:54;5.40;73.10
25616;DHT22;13482;48.234;13.006;2023-02-15T13:17:31;5.40;73.20
25616;DHT22;13482;48.234;13.006;2023-02-15T13:20:06;5.40;73.10
25616;DHT22;13482;48.234;13.006;2023-02-15T13:22:45;5.40;73.10
25616;DHT22;13482;48.234;13.006;2023-02-15T13:25:19;5.40;73.10
25616;DHT22;13482;48.234;13.006;2023-02-15T13:27:57;5.40;73.00
25616;DHT22;13482;48.234;13.006;2023-02-15T13:30:31;5.40;73.00
25616;DHT22;13482;48.234;13.006;2023-02-15T13:36:20;5.40;72.80
25616;DHT22;13482;48.234;13.006;2023-02-15T13:44:38;5.40;72.40
25616;DHT22;13482;48.234;13.006;2023-02-15T13:47:39;5.30;72.50
25616;DHT22;13482;48.234;13.006;2023-02-15T13:50:20;5.30;72.30
25616;DHT22;13482;48.234;13.006;2023-02-15T13:55:56;5.30;72.50
25616;DHT22;13482;48.234;13.006;2023-02-15T14:01:41;5.30;72.60
25616;DHT22;13482;48.234;13.006;2023-02-15T14:10:11;5.30;72.40
25616;DHT22;13482;48.234;13.006;2023-02-15T14:16:25;5.30;72.20
25616;DHT22;13482;48.234;13.006;2023-02-15T14:21:43;5.30;72.50
25616;DHT22;13482;48.234;13.006;2023-02-15T14:24:27;5.30;72.50
25616;DHT22;13482;48.234;13.006;2023-02-15T14:27:24;5.30;72.50
25616;DHT22;13482;48.234;13.006;2023-02-15T14:30:00;5.30;72.50
25616;DHT22;13482;48.234;13.006;2023-02-15T14:32:37;5.30;72.50
25616;DHT22;13482;48.234;13.006;2023-02-15T14:35:14;5.30;72.50
25616;DHT22;13482;48.234;13.006;2023-02-15T14:37:55;5.30;72.50
25616;DHT22;13482;48.234;13.006;2023-02-15T14:49:24;5.30;72.60
25616;DHT22;13482;48.234;13.006;2023-02-15T14:52:01;5.30;72.50
25616;DHT22;13482;48.234;13.006;2023-02-15T14:59:42;5.30;72.30
25616;DHT22;13482;48.234;13.006;2023-02-15T15:05:34;5.20;72.10
25616;DHT22;13482;48.234;13.006;2023-02-15T15:08:03;5.20;72.10
25616;DHT22;13482;48.234;13.006;2023-02-15T15:10:37;5.20;72.10
25616;DHT22;13482;48.234;13.006;2023-02-15T15:13:36;5.10;72.00
25616;DHT22;13482;48.234;13.006;2023-02-15T15:19:04;5.00;71.80
25616;DHT22;13482;48.234;13.006;2023-02-15T15:41:48;4.50;72.20
25616;DHT22;13482;48.234;13.006;2023-02-15T15:45:00;4.40;72.30
25616;DHT22;13482;48.234;13.006;2023-02-15T15:50:43;4.30;72.40
25616;DHT22;13482;48.234;13.006;2023-02-15T15:53:22;4.30;72.50
25616;DHT22;13482;48.234;13.006;2023-02-15T15:55:57;4.30;72.60
25616;DHT22;13482;48.234;13.006;2023-02-15T15:58:28;4.30;72.60
25616;DHT22;13482;48.234;13.006;2023-02-15T16:01:08;4.30;72.60
25616;DHT22;13482;48.234;13.006;2023-02-15T16:03:38;4.30;72.60
25616;DHT22;13482;48.234;13.006;2023-02-15T16:06:05;4.20;72.60
25616;DHT22;13482;48.234;13.006;2023-02-15T16:08:40;4.20;72.60
25616;DHT22;13482;48.234;13.006;2023-02-15T16:11:15;4.10;72.70
25616;DHT22;13482;48.234;13.006;2023-02-15T16:13:47;4.10;72.70
25616;DHT22;13482;48.234;13.006;2023-02-15T16:16:27;4.20;72.70
25616;DHT22;13482;48.234;13.006;2023-02-15T16:18:58;4.20;72.70
25616;DHT22;13482;48.234;13.006;2023-02-15T16:21:32;4.20;72.70
25616;DHT22;13482;48.234;13.006;2023-02-15T16:29:44;4.10;72.70
25616;DHT22;13482;48.234;13.006;2023-02-15T16:32:25;4.10;72.70
25616;DHT22;13482;48.234;13.006;2023-02-15T16:35:03;4.10;72.70
25616;DHT22;13482;48.234;13.006;2023-02-15T16:37:38;4.00;72.80
25616;DHT22;13482;48.234;13.006;2023-02-15T16:40:06;4.00;72.80
25616;DHT22;13482;48.234;13.006;2023-02-15T16:42:38;4.00;72.80
25616;DHT22;13482;48.234;13.006;2023-02-15T16:45:12;3.90;72.90
25616;DHT22;13482;48.234;13.006;2023-02-15T16:47:45;4.00;72.90
25616;DHT22;13482;48.234;13.006;2023-02-15T16:50:32;3.90;73.00
25616;DHT22;13482;48.234;13.006;2023-02-15T16:53:02;4.00;73.00
25616;DHT22;13482;48.234;13.006;2023-02-15T16:55:37;3.90;72.90
25616;DHT22;13482;48.234;13.006;2023-02-15T16:58:12;3.90;72.90
25616;DHT22;13482;48.234;13.006;2023-02-15T17:00:42;3.90;73.00
25616;DHT22;13482;48.234;13.006;2023-02-15T17:05:48;3.90;73.00
25616;DHT22;13482;48.234;13.006;2023-02-15T17:08:34;3.90;73.00
25616;DHT22;13482;48.234;13.006;2023-02-15T17:11:18;3.90;73.00
25616;DHT22;13482;48.234;13.006;2023-02-15T17:16:44;3.90;73.10
25616;DHT22;13482;48.234;13.006;2023-02-15T17:19:23;3.90;73.00
25616;DHT22;13482;48.234;13.006;2023-02-15T17:21:56;3.80;73.00
25616;DHT22;13482;48.234;13.006;2023-02-15T17:27:21;3.70;73.00
25616;DHT22;13482;48.234;13.006;2023-02-15T17:29:51;3.70;73.10
25616;DHT22;13482;48.234;13.006;2023-02-15T17:32:25;3.70;73.20
25616;DHT22;13482;48.234;13.006;2023-02-15T17:40:25;3.60;73.30
25616;DHT22;13482;48.234;13.006;2023-02-15T17:42:53;3.60;73.40
25616;DHT22;13482;48.234;13.006;2023-02-15T17:45:22;3.60;73.40
25616;DHT22;13482;48.234;13.006;2023-02-15T17:47:52;3.60;73.50
25616;DHT22;13482;48.234;13.006;2023-02-15T17:50:23;3.60;73.50
25616;DHT22;13482;48.234;13.006;2023-02-15T17:52:52;3.60;73.50
25616;DHT22;13482;48.234;13.006;2023-02-15T17:55:22;3.60;73.60
25616;DHT22;13482;48.234;13.006;2023-02-15T17:58:07;3.60;73.60
25616;DHT22;13482;48.234;13.006;2023-02-15T18:00:44;3.60;73.50
25616;DHT22;13482;48.234;13.006;2023-02-15T18:03:49;3.70;73.50
25616;DHT22;13482;48.234;13.006;2023-02-15T18:06:42;3.70;73.60
25616;DHT22;13482;48.234;13.006;2023-02-15T18:09:28;3.60;73.50
25616;DHT22;13482;48.234;13.006;2023-02-15T18:12:22;3.60;73.50
25616;DHT22;13482;48.234;13.006;2023-02-15T18:14:50;3.60;73.50
25616;DHT22;13482;48.234;13.006;2023-02-15T18:17:33;3.60;73.50
25616;DHT22;13482;48.234;13.006;2023-02-15T18:20:14;3.60;73.60
25616;DHT22;13482;48.234;13.006;2023-02-15T18:22:43;3.60;73.60
25616;DHT22;13482;48.234;13.006;2023-02-15T18:25:13;3.60;73.60
25616;DHT22;13482;48.234;13.006;2023-02-15T18:27:43;3.60;73.70
25616;DHT22;13482;48.234;13.006;2023-02-15T18:30:19;3.60;73.80
25616;DHT22;13482;48.234;13.006;2023-02-15T18:32:48;3.60;73.80
25616;DHT22;13482;48.234;13.006;2023-02-15T18:35:22;3.60;73.80
25616;DHT22;13482;48.234;13.006;2023-02-15T18:37:52;3.60;73.80
25616;DHT22;13482;48.234;13.006;2023-02-15T18:40:22;3.60;73.80
25616;DHT22;13482;48.234;13.006;2023-02-15T18:42:52;3.60;73.80
25616;DHT22;13482;48.234;13.006;2023-02-15T18:45:22;3.60;73.90
25616;DHT22;13482;48.234;13.006;2023-02-15T18:47:58;3.60;73.90
25616;DHT22;13482;48.234;13.006;2023-02-15T18:50:28;3.50;73.90
25616;DHT22;13482;48.234;13.006;2023-02-15T18:52:59;3.50;73.90
25616;DHT22;13482;48.234;13.006;2023-02-15T18:55:29;3.50;73.90
25616;DHT22;13482;48.234;13.006;2023-02-15T18:57:58;3.50;73.90
25616;DHT22;13482;48.234;13.006;2023-02-15T19:00:28;3.50;74.00
25616;DHT22;13482;48.234;13.006;2023-02-15T19:02:59;3.50;74.00
25616;DHT22;13482;48.234;13.006;2023-02-15T19:05:28;3.50;74.00
25616;DHT22;13482;48.234;13.006;2023-02-15T19:07:58;3.50;74.00
25616;DHT22;13482;48.234;13.006;2023-02-15T19:10:28;3.50;74.00
25616;DHT22;13482;48.234;13.006;2023-02-15T19:12:57;3.60;74.00
25616;DHT22;13482;48.234;13.006;2023-02-15T19:15:27;3.50;74.00
25616;DHT22;13482;48.234;13.006;2023-02-15T19:17:59;3.60;73.90
25616;DHT22;13482;48.234;13.006;2023-02-15T19:20:44;3.50;73.90
25616;DHT22;13482;48.234;13.006;2023-02-15T19:23:21;3.60;74.10
25616;DHT22;13482;48.234;13.006;2023-02-15T19:25:50;3.60;74.00
25616;DHT22;13482;48.234;13.006;2023-02-15T19:28:23;3.60;74.00
25616;DHT22;13482;48.234;13.006;2023-02-15T19:30:55;3.60;74.00